• Join FlightAware (Why Join?)
  • Login
  • US Flag 
03:28AM EDT


 

Airport Tracker/Info


-or-


 

Live Flight TrackerFlight Track Log ✈ UAL3773 ✈ 09-Apr-2013 ✈ KIAD - KMCI

Flight Track Log - Related Links

Times and Time Zones

All times are in EDT time to prevent confusion due to time zone crossing. See the UAL3773 flight status page for this flight to view local times or setup timezone preferences in your user account.

Time Position Orientation Groundspeed Altitude Reporting Facility
EDT Latitude Longitude Course Direction KTS MPH feet Rate Location/Type
03:46PM 38.9333 -77.5500 252° West 197 227 2,400  Level Potomac TRACON
03:47PM 38.9167 -77.6167 252° West 244 281 4,600 1,560 Climbing Potomac TRACON
03:48PM 38.9000 -77.7167 258° West 264 304 5,600 2,100 Climbing Potomac TRACON
03:49PM 38.8558 -77.7828 229° Southwest 270 311 8,700 2,460 Climbing Washington Center
03:50PM 38.8439 -77.8758 261° West 265 305 10,500 1,800 Climbing Washington Center
03:51PM 38.8481 -77.9747 273° West 290 334 12,300 1,980 Climbing Washington Center
03:52PM 38.8517 -78.1081 272° West 327 376 14,500 1,860 Climbing Washington Center
03:53PM 38.8556 -78.2175 273° West 349 402 16,100 1,740 Climbing Washington Center
03:54PM 38.8544 -78.3586 269° West 359 413 18,000 1,680 Climbing Washington Center
03:55PM 38.8517 -78.4786 268° West 369 425 19,500 1,440 Climbing Washington Center
03:56PM 38.8544 -78.6200 271° West 387 445 20,900 1,440 Climbing Washington Center
03:57PM 38.8531 -78.7586 269° West 387 445 22,400 1,380 Climbing Washington Center
03:58PM 38.8447 -78.9100 266° West 392 451 23,700 1,380 Climbing Washington Center
03:59PM 38.8453 -79.0353 270° West 386 444 25,200 1,260 Climbing Washington Center
04:00PM 38.8447 -79.2006 270° West 394 453 26,300 900 Climbing Washington Center
04:01PM 38.8422 -79.3497 269° West 414 476 27,000 720 Climbing Washington Center
04:02PM 38.8375 -79.4989 268° West 419 482 27,800 840 Climbing Washington Center
04:03PM 38.8369 -79.6372 270° West 419 482 28,700 1,020 Climbing Washington Center
04:04PM 38.8319 -79.7864 268° West 419 482 29,900 1,080 Climbing Washington Center
04:05PM 38.8267 -79.9325 267° West 419 482 30,900 1,020 Climbing Washington Center
04:06PM 38.8250 -80.0925 269° West 419 482 32,000 1,020 Climbing Washington Center
04:06PM 38.8203 -80.1303 261° West 410 472 32,300 900 Climbing Indianapolis Center
04:07PM 38.8169 -80.2753 268° West 407 468 33,300 780 Climbing Indianapolis Center
04:08PM 38.8119 -80.4181 267° West 404 465 34,000 540 Climbing Indianapolis Center
04:09PM 38.8083 -80.5656 268° West 413 475 34,500 720 Climbing Indianapolis Center
04:10PM 38.8042 -80.7114 268° West 411 473 35,500 1,020 Climbing Indianapolis Center
04:11PM 38.7986 -80.8822 268° West 401 461 36,700 960 Climbing Indianapolis Center
04:12PM 38.7933 -81.0225 267° West 395 455 37,600 600 Climbing Indianapolis Center
04:13PM 38.7889 -81.1622 268° West 394 453 38,000 180 Climbing Indianapolis Center
04:14PM 38.7839 -81.3044 267° West 400 460 38,000  Level Indianapolis Center
04:15PM 38.7772 -81.4597 267° West 410 472 38,000  Level Indianapolis Center
04:16PM 38.7733 -81.6106 268° West 420 483 38,000  Level Indianapolis Center
04:17PM 38.7664 -81.7708 267° West 422 486 38,000  Level Indianapolis Center
04:18PM 38.7603 -81.9144 267° West 409 471 38,000  Level Indianapolis Center
04:19PM 38.7542 -82.0586 267° West 407 468 38,000  Level Indianapolis Center
04:20PM 38.7483 -82.2019 267° West 404 465 38,000  Level Indianapolis Center
04:21PM 38.7419 -82.3756 267° West 406 467 38,000  Level Indianapolis Center
04:22PM 38.7372 -82.5189 268° West 406 467 38,000  Level Indianapolis Center
04:24PM 38.7297 -82.6644 266° West 409 471 38,000  Level Indianapolis Center
04:25PM 38.7236 -82.8106 267° West 411 473 38,000  Level Indianapolis Center
04:26PM 38.7183 -82.9553 267° West 408 470 38,000  Level Indianapolis Center
04:27PM 38.7106 -83.1019 266° West 410 472 38,000  Level Indianapolis Center
04:28PM 38.7036 -83.2578 267° West 407 468 38,000  Level Indianapolis Center
04:29PM 38.6975 -83.4056 267° West 410 472 38,000  Level Indianapolis Center
04:30PM 38.6897 -83.5542 266° West 412 474 38,000  Level Indianapolis Center
04:31PM 38.6817 -83.6992 266° West 407 468 38,000  Level Indianapolis Center
04:32PM 38.6739 -83.8469 266° West 410 472 38,000  Level Indianapolis Center
04:33PM 38.6653 -84.0211 266° West 416 479 38,000  Level Indianapolis Center
04:34PM 38.6575 -84.1689 266° West 413 475 38,000  Level Indianapolis Center
04:35PM 38.6506 -84.3194 267° West 417 480 38,000  Level Indianapolis Center
04:36PM 38.6589 -84.4667 274° West 411 473 38,000  Level Indianapolis Center
04:37PM 38.6683 -84.6239 274° West 414 476 38,000  Level Indianapolis Center
04:38PM 38.6764 -84.7731 274° West 419 482 38,000  Level Indianapolis Center
04:39PM 38.6844 -84.9194 274° West 415 478 38,000  Level Indianapolis Center
04:40PM 38.6925 -85.0678 274° West 417 480 38,000  Level Indianapolis Center
04:41PM 38.7000 -85.2161 274° West 417 480 38,000  Level Indianapolis Center
04:42PM 38.7086 -85.3647 274° West 418 481 38,000  Level Indianapolis Center
04:43PM 38.7169 -85.5433 273° West 419 482 38,000  Level Indianapolis Center
04:44PM 38.7250 -85.6922 274° West 418 481 38,000  Level Indianapolis Center
04:45PM 38.7317 -85.8403 273° West 417 480 38,000  Level Indianapolis Center
04:46PM 38.7397 -85.9892 274° West 419 482 38,000  Level Indianapolis Center
04:47PM 38.7472 -86.1361 274° West 414 476 38,000  Level Indianapolis Center
04:48PM 38.7533 -86.2822 273° West 412 474 38,000  Level Indianapolis Center
04:49PM 38.7611 -86.4586 273° West 412 474 38,000  Level Indianapolis Center
04:50PM 38.7675 -86.6061 273° West 414 476 38,000  Level Indianapolis Center
04:51PM 38.7728 -86.7528 273° West 412 474 38,000  Level Indianapolis Center
04:52PM 38.7786 -86.8997 273° West 414 476 38,000  Level Indianapolis Center
04:53PM 38.7847 -87.0464 273° West 414 476 38,000  Level Indianapolis Center
04:55PM 38.7892 -87.1931 272° West 414 476 38,000  Level Indianapolis Center
04:56PM 38.7950 -87.3694 272° West 415 478 38,000  Level Indianapolis Center
04:57PM 38.8008 -87.5164 273° West 416 479 38,000  Level Indianapolis Center
04:58PM 38.8058 -87.6633 273° West 414 476 38,000  Level Indianapolis Center
04:59PM 38.8106 -87.8119 272° West 416 479 38,000  Level Indianapolis Center
05:00PM 38.8144 -87.9600 272° West 415 478 38,000  Level Indianapolis Center
05:00PM 38.8156 -88.0211 271° West 415 478 38,000  Level Kansas City Center
05:01PM 38.8197 -88.1714 272° West 419 482 38,000  Level Kansas City Center
05:02PM 38.8239 -88.3514 272° West 420 483 38,000 180 Level Kansas City Center
05:03PM 38.8483 -88.4989 282° West 423 487 38,400 600 Climbing Kansas City Center
05:04PM 38.8814 -88.6453 286° West 417 480 39,300 720 Climbing Kansas City Center
05:05PM 38.9122 -88.7836 286° West 407 468 40,000 300 Climbing Kansas City Center
05:06PM 38.9417 -88.9231 285° West 406 467 40,000  Level Kansas City Center
05:07PM 38.9775 -89.0839 286° West 420 483 40,000  Level Kansas City Center
05:08PM 39.0094 -89.2297 286° West 426 490 40,000  Level Kansas City Center
05:09PM 39.0428 -89.3881 285° West 428 493 40,000  Level Kansas City Center
05:10PM 39.0750 -89.5344 286° West 428 493 40,000  Level Kansas City Center
05:11PM 39.1089 -89.6931 285° West 428 493 40,000  Level Kansas City Center
05:13PM 39.1389 -89.8403 285° West 427 491 40,000  Level Kansas City Center
05:14PM 39.1672 -89.9747 285° West 426 490 40,000  Level Kansas City Center
05:15PM 39.1967 -90.1217 285° West 426 490 40,000  Level Kansas City Center
05:16PM 39.2322 -90.2981 285° West 428 493 40,000  Level Kansas City Center
05:17PM 39.2622 -90.4444 285° West 427 491 40,000  Level Kansas City Center
05:18PM 39.2919 -90.5911 285° West 426 490 40,000  Level Kansas City Center
05:19PM 39.3219 -90.7364 285° West 425 489 40,000  Level Kansas City Center
05:20PM 39.3506 -90.8819 284° West 422 486 40,000  Level Kansas City Center
05:21PM 39.3844 -91.0592 284° West 424 488 40,000  Level Kansas City Center
05:22PM 39.4139 -91.2067 285° West 425 489 40,000  Level Kansas City Center
05:23PM 39.4425 -91.3553 284° West 427 491 40,000  Level Kansas City Center
05:24PM 39.4706 -91.5028 284° West 426 490 40,000  Level Kansas City Center
05:25PM 39.4983 -91.6497 284° West 423 487 40,000  Level Kansas City Center
05:26PM 39.5283 -91.8042 284° West 424 488 40,000  Level Kansas City Center
05:27PM 39.5569 -91.9517 284° West 424 488 40,000  Level Kansas City Center
05:28PM 39.5903 -92.1281 284° West 422 486 40,000 -60 Level Kansas City Center
05:29PM 39.6156 -92.2767 282° West 423 487 39,900 -1,080 Descending Kansas City Center
05:30PM 39.6172 -92.4275 271° West 421 484 37,800 -2,520 Descending Kansas City Center
05:31PM 39.6194 -92.5808 271° West 424 488 34,800 -2,880 Descending Kansas City Center
05:32PM 39.6217 -92.7336 271° West 425 489 32,000 -2,700 Descending Kansas City Center
05:33PM 39.6239 -92.8908 271° West 430 495 29,200 -3,000 Descending Kansas City Center
05:34PM 39.6256 -93.0750 271° West 430 495 25,800 -3,060 Descending Kansas City Center
05:35PM 39.6275 -93.2247 271° West 420 483 23,000 -2,760 Descending Kansas City Center
05:36PM 39.6283 -93.3717 270° West 413 475 20,200 -2,820 Descending Kansas City Center
05:37PM 39.6303 -93.5114 271° West 402 463 17,200 -2,700 Descending Kansas City Center
05:38PM 39.6303 -93.6419 270° West 374 430 14,700 -2,280 Descending Kansas City Center
05:39PM 39.6317 -93.8058 271° West 380 437 12,500 -1,680 Descending Kansas City Center
05:40PM 39.6086 -93.9197 255° West 341 392 11,300 -1,380 Descending Kansas City Center
05:41PM 39.5600 -94.0158 237° Southwest 285 328 9,700 -1,740 Descending Kansas City Center
05:43PM 39.5247 -94.0942 240° Southwest 266 306 7,700 -1,320 Descending Kansas City Center
05:44PM 39.5106 -94.2061 261° West 281 323 7,000 -360 Descending Kansas City Center
05:45PM 39.4986 -94.2978 260° West 270 311 7,000  Level Kansas City Center
05:46PM 39.4867 -94.3894 260° West 271 312 7,000 -780 Level Kansas City Center
05:47PM 39.4731 -94.4933 260° West 261 300 5,400 -1,440 Descending Kansas City Center
05:48PM 39.4614 -94.5819 260° West 261 300 4,000 -1,200 Descending Kansas City Center
05:49PM 39.4511 -94.6811 262° West 260 299 3,000 -780 Descending Kansas City Center
05:50PM 39.3944 -94.6989 194° South 218 251 2,500 -720 Descending Kansas City Center
05:51PM 39.3497 -94.7128 194° South 142 163 1,600 -780 Descending Kansas City Center
05:52PM 39.3125 -94.7236 193° South 133 153 1,000 -600 Descending Kansas City Center
05:54PM 39.2976 -94.7139 72° East  Level Estimated